createdAt,value
2018-07-10T00:02:48.244Z,15.98
2018-07-10T00:07:35.874Z,15.94
2018-07-10T00:10:27.171Z,15.79
2018-07-10T00:12:55.444Z,15.76
2018-07-10T00:15:23.741Z,15.71
2018-07-10T00:17:52.163Z,15.72
2018-07-10T00:20:20.427Z,15.76
2018-07-10T00:22:49.059Z,15.75
2018-07-10T00:25:17.476Z,15.65
2018-07-10T00:27:45.766Z,15.70
2018-07-10T00:30:14.105Z,15.66
2018-07-10T00:32:42.343Z,15.68
2018-07-10T00:35:10.397Z,15.69
2018-07-10T00:37:38.445Z,15.67
2018-07-10T00:40:07.111Z,15.62
2018-07-10T00:42:35.253Z,15.67
2018-07-10T00:45:03.315Z,15.57
2018-07-10T00:47:31.391Z,15.50
2018-07-10T00:49:59.816Z,15.39
2018-07-10T00:52:32.614Z,15.29
2018-07-10T00:55:00.996Z,15.14
2018-07-10T00:57:30.411Z,15.29
2018-07-10T00:59:58.531Z,15.19
2018-07-10T01:02:26.588Z,15.16
2018-07-10T01:04:54.636Z,15.12
2018-07-10T01:07:23.393Z,15.18
2018-07-10T01:09:51.479Z,15.25
2018-07-10T01:12:19.551Z,15.25
2018-07-10T01:14:47.626Z,15.26
2018-07-10T01:17:16.722Z,15.21
2018-07-10T01:19:44.821Z,15.19
2018-07-10T01:22:12.884Z,15.14
2018-07-10T01:24:40.915Z,14.96
2018-07-10T01:27:08.998Z,14.94
2018-07-10T01:29:42.431Z,14.90
2018-07-10T01:32:10.903Z,14.86
2018-07-10T01:34:38.968Z,14.83
2018-07-10T01:37:07.009Z,14.83
2018-07-10T01:39:35.076Z,14.83
2018-07-10T01:42:03.131Z,14.83
2018-07-10T01:44:31.198Z,14.84
2018-07-10T01:46:59.356Z,14.84
2018-07-10T01:49:27.608Z,14.82
2018-07-10T01:51:55.823Z,14.83
2018-07-10T01:54:24.363Z,14.83
2018-07-10T01:56:52.435Z,14.82
2018-07-10T01:59:21.820Z,14.79
2018-07-10T02:01:49.893Z,14.72
2018-07-10T02:04:17.975Z,14.74
2018-07-10T02:06:46.059Z,14.72
2018-07-10T02:09:14.112Z,14.74
2018-07-10T02:11:43.086Z,14.74
2018-07-10T02:14:11.196Z,14.77
2018-07-10T02:16:39.288Z,14.78
2018-07-10T02:19:07.336Z,14.77
2018-07-10T02:21:35.428Z,14.75
2018-07-10T02:24:03.463Z,14.76
2018-07-10T02:26:31.552Z,14.76
2018-07-10T02:28:59.667Z,14.73
2018-07-10T02:31:27.765Z,14.71
2018-07-10T02:33:55.820Z,14.73
2018-07-10T02:36:24.644Z,14.71
2018-07-10T02:38:57.263Z,14.70
2018-07-10T02:41:25.360Z,14.69
2018-07-10T02:43:55.879Z,14.71
2018-07-10T02:46:24.614Z,14.72
2018-07-10T02:48:53.478Z,14.73
2018-07-10T02:51:21.568Z,14.73
2018-07-10T02:53:49.664Z,14.74
2018-07-10T02:56:19.724Z,14.73
2018-07-10T02:58:47.748Z,14.72
2018-07-10T03:01:15.930Z,14.73
2018-07-10T03:03:44.848Z,14.71
2018-07-10T03:06:13.150Z,14.71
2018-07-10T03:08:41.428Z,14.71
2018-07-10T03:11:09.720Z,14.69
2018-07-10T03:13:39.526Z,14.67
2018-07-10T03:16:07.604Z,14.68
2018-07-10T03:18:35.658Z,14.69
2018-07-10T03:21:03.709Z,14.71
2018-07-10T03:23:31.823Z,14.69
2018-07-10T03:25:59.891Z,14.68
2018-07-10T03:28:28.148Z,14.63
2018-07-10T03:30:56.192Z,14.61
2018-07-10T03:33:24.222Z,14.59
2018-07-10T03:35:52.452Z,14.57
2018-07-10T03:38:20.530Z,14.53
2018-07-10T03:40:48.611Z,14.52
2018-07-10T03:43:16.781Z,14.52
2018-07-10T03:45:44.900Z,14.49
2018-07-10T03:48:12.951Z,14.48
2018-07-10T03:50:40.998Z,14.42
2018-07-10T03:53:09.511Z,14.41
2018-07-10T03:55:37.905Z,14.43
2018-07-10T03:58:05.950Z,14.44
2018-07-10T04:00:34.641Z,14.47
2018-07-10T04:03:02.744Z,14.51
2018-07-10T04:05:30.807Z,14.53
2018-07-10T04:07:58.927Z,14.53
2018-07-10T04:10:27.956Z,14.51
2018-07-10T04:12:56.443Z,14.51
2018-07-10T04:15:24.502Z,14.55
2018-07-10T04:17:58.954Z,14.58
2018-07-10T04:20:31.179Z,14.60
2018-07-10T04:22:59.243Z,14.60
2018-07-10T04:25:34.351Z,14.63
2018-07-10T04:28:06.000Z,14.65
2018-07-10T04:30:40.632Z,14.69
2018-07-10T04:33:08.972Z,14.72
2018-07-10T04:35:37.068Z,14.73
2018-07-10T04:38:05.385Z,14.74
2018-07-10T04:40:33.531Z,14.79
2018-07-10T04:43:05.252Z,14.81
2018-07-10T04:45:39.680Z,14.81
2018-07-10T04:48:14.626Z,14.81
2018-07-10T04:50:46.503Z,14.85
2018-07-10T04:53:26.043Z,14.85
2018-07-10T04:55:55.836Z,14.83
2018-07-10T04:58:23.953Z,14.94
2018-07-10T05:00:55.585Z,14.94
2018-07-10T05:03:25.012Z,14.94
2018-07-10T05:05:53.122Z,14.92
2018-07-10T05:08:21.740Z,14.90
2018-07-10T05:10:51.928Z,14.87
2018-07-10T05:13:20.136Z,14.92
2018-07-10T05:15:51.872Z,14.94
2018-07-10T05:18:19.940Z,14.98
2018-07-10T05:20:47.997Z,14.99
2018-07-10T05:23:17.219Z,14.98
2018-07-10T05:25:47.560Z,14.94
2018-07-10T05:28:15.773Z,14.92
2018-07-10T05:30:44.493Z,14.90
2018-07-10T05:33:13.379Z,14.83
2018-07-10T05:35:41.796Z,14.80
2018-07-10T05:38:09.907Z,14.74
2018-07-10T05:40:38.014Z,14.66
2018-07-10T05:43:13.342Z,14.57
2018-07-10T05:45:41.528Z,14.49
2018-07-10T05:48:09.712Z,14.44
2018-07-10T05:50:41.354Z,14.39
2018-07-10T05:53:10.249Z,14.30
2018-07-10T05:55:44.240Z,14.33
2018-07-10T05:58:12.296Z,14.29
2018-07-10T06:00:40.512Z,14.31
2018-07-10T06:03:08.575Z,14.31
2018-07-10T06:05:36.635Z,14.33
2018-07-10T06:08:04.770Z,14.35
2018-07-10T06:10:33.181Z,14.36
2018-07-10T06:13:02.304Z,14.40
2018-07-10T06:15:30.747Z,14.43
2018-07-10T06:17:58.838Z,14.44
2018-07-10T06:20:27.184Z,14.49
2018-07-10T06:22:56.596Z,14.49
2018-07-10T06:25:24.701Z,14.48
2018-07-10T06:28:01.372Z,14.41
2018-07-10T06:30:29.599Z,14.36
2018-07-10T06:32:59.773Z,14.34
2018-07-10T06:35:44.435Z,14.35
2018-07-10T06:38:14.192Z,14.38
2018-07-10T06:40:44.549Z,14.42
2018-07-10T06:43:15.484Z,14.41
2018-07-10T06:45:43.794Z,14.41
2018-07-10T06:48:12.505Z,14.45
2018-07-10T06:50:40.594Z,14.55
2018-07-10T06:53:09.828Z,14.59
2018-07-10T06:55:41.612Z,14.67
2018-07-10T06:58:09.676Z,14.76
2018-07-10T07:00:37.911Z,14.79
2018-07-10T07:03:05.987Z,14.87
2018-07-10T07:05:34.045Z,14.92
2018-07-10T07:08:02.143Z,14.96
2018-07-10T07:10:30.195Z,15.05
2018-07-10T07:12:58.280Z,15.17
2018-07-10T07:15:26.362Z,15.38
2018-07-10T07:17:54.428Z,15.45
2018-07-10T07:20:23.167Z,15.50
2018-07-10T07:22:51.893Z,15.46
2018-07-10T07:25:19.952Z,15.52
2018-07-10T07:27:48.057Z,15.56
2018-07-10T07:30:16.109Z,15.58
2018-07-10T07:32:44.183Z,15.55
2018-07-10T07:35:12.260Z,15.60
2018-07-10T07:37:41.505Z,15.68
2018-07-10T07:40:10.576Z,15.70
2018-07-10T07:42:38.975Z,15.78
2018-07-10T07:45:07.201Z,15.87
2018-07-10T07:47:35.278Z,15.90
2018-07-10T07:50:03.407Z,15.95
2018-07-10T07:52:32.402Z,15.93
2018-07-10T07:55:01.495Z,15.88
2018-07-10T07:57:29.567Z,15.80
2018-07-10T07:59:57.679Z,15.73
2018-07-10T08:02:26.207Z,15.64
2018-07-10T08:04:54.469Z,15.55
2018-07-10T08:07:23.655Z,15.45
2018-07-10T08:09:53.216Z,15.39
2018-07-10T08:12:22.211Z,15.39
2018-07-10T08:14:51.412Z,15.43
2018-07-10T08:17:20.048Z,15.47
2018-07-10T08:19:48.121Z,15.57
2018-07-10T08:22:16.174Z,15.74
2018-07-10T08:24:44.567Z,15.89
2018-07-10T08:27:12.656Z,16.02
2018-07-10T08:29:41.152Z,16.21
2018-07-10T08:32:09.355Z,16.47
2018-07-10T08:34:37.484Z,16.60
2018-07-10T08:37:05.837Z,16.81
2018-07-10T08:39:33.896Z,16.88
2018-07-10T08:42:04.976Z,16.81
2018-07-10T08:44:33.148Z,16.66
2018-07-10T08:47:01.296Z,16.49
2018-07-10T08:49:32.764Z,16.34
2018-07-10T08:52:00.884Z,16.22
2018-07-10T08:54:29.117Z,16.13
2018-07-10T08:56:57.492Z,16.07
2018-07-10T08:59:25.721Z,15.95
2018-07-10T09:01:53.871Z,15.88
2018-07-10T09:04:21.940Z,15.85
2018-07-10T09:06:50.116Z,15.81
2018-07-10T09:09:18.544Z,15.80
2018-07-10T09:11:46.590Z,15.75
2018-07-10T09:14:16.063Z,15.73
2018-07-10T09:16:44.296Z,15.73
2018-07-10T09:19:14.309Z,15.78
2018-07-10T09:21:45.795Z,15.85
2018-07-10T09:24:13.828Z,15.92
2018-07-10T09:26:41.907Z,15.99
2018-07-10T09:29:09.950Z,16.02
2018-07-10T09:31:38.067Z,16.02
2018-07-10T09:34:06.111Z,16.05
2018-07-10T09:36:34.200Z,16.07
2018-07-10T09:39:02.274Z,16.08
2018-07-10T09:41:30.500Z,16.09
2018-07-10T09:43:59.409Z,16.10
2018-07-10T09:46:29.476Z,16.14
2018-07-10T09:48:58.232Z,16.17
2018-07-10T09:51:26.462Z,16.16
2018-07-10T09:53:54.955Z,16.12
2018-07-10T09:56:23.015Z,16.12
2018-07-10T09:58:54.270Z,16.10
2018-07-10T10:01:26.841Z,16.14
2018-07-10T10:03:55.855Z,16.14
2018-07-10T10:06:25.231Z,16.13
2018-07-10T10:08:53.321Z,16.12
2018-07-10T10:11:21.476Z,16.13
2018-07-10T10:13:50.235Z,16.18
2018-07-10T10:16:18.592Z,16.32
2018-07-10T10:18:47.337Z,16.39
2018-07-10T10:21:16.140Z,16.48
2018-07-10T10:23:45.066Z,16.53
2018-07-10T10:26:15.001Z,16.64
2018-07-10T10:28:43.926Z,16.71
2018-07-10T10:31:12.345Z,16.83
2018-07-10T10:33:40.395Z,16.92
2018-07-10T10:36:08.890Z,17.02
2018-07-10T10:38:42.421Z,17.09
2018-07-10T10:41:12.364Z,17.20
2018-07-10T10:43:40.733Z,17.30
2018-07-10T10:46:09.014Z,17.42
2018-07-10T10:48:37.374Z,17.49
2018-07-10T10:51:05.996Z,17.71
2018-07-10T10:53:34.072Z,17.85
2018-07-10T10:56:02.144Z,17.96
2018-07-10T10:58:30.390Z,17.88
2018-07-10T11:00:58.451Z,17.69
2018-07-10T11:03:26.524Z,17.49
2018-07-10T11:05:55.194Z,17.34
2018-07-10T11:08:23.263Z,17.10
2018-07-10T11:10:51.365Z,17.00
2018-07-10T11:13:20.174Z,16.93
2018-07-10T11:15:49.007Z,16.85
2018-07-10T11:18:36.784Z,16.79
2018-07-10T11:21:10.044Z,16.70
2018-07-10T11:23:52.424Z,16.65
2018-07-10T11:26:33.720Z,16.62
2018-07-10T11:29:02.316Z,16.64
2018-07-10T11:31:30.427Z,16.75
2018-07-10T11:33:58.503Z,16.88
2018-07-10T11:36:26.855Z,16.97
2018-07-10T11:38:58.946Z,16.99
2018-07-10T11:41:27.569Z,17.05
2018-07-10T11:43:55.899Z,17.22
2018-07-10T11:46:24.077Z,17.35
2018-07-10T11:48:53.798Z,17.36
2018-07-10T11:51:21.930Z,17.30
2018-07-10T11:53:51.038Z,17.46
2018-07-10T11:56:19.680Z,17.39
2018-07-10T11:58:48.611Z,17.35
2018-07-10T12:01:16.662Z,17.28
2018-07-10T12:03:44.831Z,17.24
2018-07-10T12:06:12.905Z,17.20
2018-07-10T12:08:41.007Z,17.11
2018-07-10T12:11:17.544Z,17.06
2018-07-10T12:13:46.190Z,17.05
2018-07-10T12:16:14.877Z,17.08
2018-07-10T12:18:44.518Z,17.09
2018-07-10T12:21:14.572Z,17.12
2018-07-10T12:23:43.155Z,17.11
2018-07-10T12:26:12.356Z,17.23
2018-07-10T12:28:41.512Z,17.30
2018-07-10T12:31:10.953Z,17.40
2018-07-10T12:33:39.512Z,17.41
2018-07-10T12:36:07.760Z,17.42
2018-07-10T12:38:35.826Z,17.38
2018-07-10T12:41:04.261Z,17.20
2018-07-10T12:43:32.748Z,17.18
2018-07-10T12:46:00.811Z,17.17
2018-07-10T12:48:29.251Z,17.11
2018-07-10T12:50:57.714Z,17.12
2018-07-10T12:53:25.804Z,17.02
2018-07-10T12:55:53.955Z,16.99
2018-07-10T12:58:22.073Z,16.97
2018-07-10T13:00:50.713Z,16.90
2018-07-10T13:03:21.627Z,16.87
2018-07-10T13:05:51.349Z,16.83
2018-07-10T13:08:19.473Z,16.77
2018-07-10T13:10:48.362Z,16.73
2018-07-10T13:13:16.782Z,16.70
2018-07-10T13:15:45.311Z,16.67
2018-07-10T13:18:14.082Z,16.67
2018-07-10T13:20:42.137Z,16.69
2018-07-10T13:23:10.210Z,16.65
2018-07-10T13:25:38.296Z,16.59
2018-07-10T13:28:06.477Z,16.52
2018-07-10T13:30:34.579Z,16.46
2018-07-10T13:33:02.809Z,16.34
2018-07-10T13:35:30.884Z,16.22
2018-07-10T13:37:58.926Z,16.15
2018-07-10T13:40:27.315Z,16.07
2018-07-10T13:42:57.693Z,15.96
2018-07-10T13:45:26.907Z,15.85
2018-07-10T13:47:54.975Z,15.73
2018-07-10T13:50:25.846Z,15.61
2018-07-10T13:52:55.058Z,15.47
2018-07-10T13:55:23.131Z,15.37
2018-07-10T13:59:00.063Z,15.28
2018-07-10T14:01:28.260Z,15.08
2018-07-10T14:03:56.335Z,15.03
2018-07-10T14:06:24.496Z,15.09
2018-07-10T14:08:52.661Z,15.20
2018-07-10T14:11:20.752Z,15.35
2018-07-10T14:13:48.869Z,15.52
2018-07-10T14:16:16.991Z,15.73
2018-07-10T14:18:45.053Z,15.88
2018-07-10T14:21:13.099Z,16.07
2018-07-10T14:23:41.204Z,16.30
2018-07-10T14:26:09.295Z,16.57
2018-07-10T14:28:37.380Z,16.82
2018-07-10T14:31:05.466Z,16.98
2018-07-10T14:33:33.548Z,17.13
2018-07-10T14:36:01.633Z,17.25
2018-07-10T14:38:30.781Z,17.37
2018-07-10T14:41:03.338Z,17.48
2018-07-10T14:43:33.519Z,17.61
2018-07-10T14:46:08.833Z,17.72
2018-07-10T14:49:07.849Z,17.81
2018-07-10T14:51:41.752Z,17.91
2018-07-10T14:54:11.155Z,17.99
2018-07-10T14:56:39.264Z,18.07
2018-07-10T14:59:07.692Z,18.16
2018-07-10T15:01:35.711Z,18.25
2018-07-10T15:04:03.808Z,18.36
2018-07-10T15:06:32.084Z,18.48
2018-07-10T15:09:00.603Z,18.55
2018-07-10T15:11:28.679Z,18.66
2018-07-10T15:14:00.069Z,18.82
2018-07-10T15:16:32.327Z,19.05
2018-07-10T15:19:00.783Z,19.30
2018-07-10T15:21:29.483Z,19.51
2018-07-10T15:23:57.755Z,19.64
2018-07-10T15:26:25.873Z,19.73
2018-07-10T15:28:54.481Z,19.76
2018-07-10T15:31:22.661Z,19.72
2018-07-10T15:33:50.752Z,19.51
2018-07-10T15:36:18.856Z,19.41
2018-07-10T15:38:47.510Z,19.39
2018-07-10T15:41:15.957Z,19.36
2018-07-10T15:43:44.143Z,19.35
2018-07-10T15:46:12.238Z,19.35
2018-07-10T15:48:40.327Z,19.33
2018-07-10T15:51:08.904Z,19.27
2018-07-10T15:53:37.512Z,19.23
2018-07-10T15:56:07.606Z,19.24
2018-07-10T15:58:38.282Z,19.26
2018-07-10T16:01:07.035Z,19.24
2018-07-10T16:03:35.230Z,19.23
2018-07-10T16:06:04.649Z,19.23
2018-07-10T16:08:36.629Z,19.16
2018-07-10T16:11:05.372Z,19.20
2018-07-10T16:13:37.681Z,19.24
2018-07-10T16:16:06.368Z,19.24
2018-07-10T16:18:34.480Z,19.27
2018-07-10T16:21:03.736Z,19.30
2018-07-10T16:23:33.360Z,19.35
2018-07-10T16:26:11.094Z,19.36
2018-07-10T16:28:42.232Z,19.31
2018-07-10T16:31:14.391Z,19.27
2018-07-10T16:33:42.501Z,19.19
2018-07-10T16:36:10.730Z,19.15
2018-07-10T16:38:39.872Z,19.13
2018-07-10T16:41:13.320Z,19.09
2018-07-10T16:43:41.407Z,19.04
2018-07-10T16:46:17.653Z,18.99
2018-07-10T16:49:01.207Z,18.95
2018-07-10T16:51:48.893Z,18.86
2018-07-10T16:54:18.680Z,18.45
2018-07-10T16:56:48.780Z,18.43
2018-07-10T16:59:17.987Z,18.52
2018-07-10T17:01:46.088Z,18.64
2018-07-10T17:04:14.179Z,18.68
2018-07-10T17:06:42.303Z,18.65
2018-07-10T17:09:10.366Z,18.80
2018-07-10T17:11:38.562Z,18.86
2018-07-10T17:14:06.650Z,18.93
2018-07-10T17:16:38.253Z,19.04
2018-07-10T17:19:06.344Z,19.10
2018-07-10T17:21:34.803Z,19.07
2018-07-10T17:24:04.683Z,19.14
2018-07-10T17:26:32.926Z,19.28
2018-07-10T17:29:04.966Z,19.31
2018-07-10T17:31:33.152Z,19.31
2018-07-10T17:34:02.028Z,19.25
2018-07-10T17:36:30.091Z,19.02
2018-07-10T17:38:59.465Z,18.87
2018-07-10T17:41:30.046Z,18.56
2018-07-10T17:43:58.157Z,18.89
2018-07-10T17:46:26.319Z,18.89
2018-07-10T17:48:54.369Z,18.73
2018-07-10T17:51:31.607Z,18.58
2018-07-10T17:54:05.299Z,18.57
2018-07-10T17:56:34.704Z,18.60
2018-07-10T17:59:06.733Z,18.47
2018-07-10T18:01:43.922Z,18.27
2018-07-10T18:04:13.617Z,18.23
2018-07-10T18:06:47.584Z,17.21
2018-07-10T18:09:16.302Z,17.78
2018-07-10T18:11:47.102Z,17.54
2018-07-10T18:14:19.144Z,17.45
2018-07-10T18:16:47.216Z,17.33
2018-07-10T18:19:15.299Z,17.16
2018-07-10T18:21:43.367Z,17.06
2018-07-10T18:24:11.588Z,16.85
2018-07-10T18:26:40.569Z,16.64
2018-07-10T18:29:08.752Z,16.52
2018-07-10T18:31:36.935Z,16.42
2018-07-10T18:34:05.856Z,16.46
2018-07-10T18:36:35.790Z,16.43
2018-07-10T18:39:04.881Z,16.41
2018-07-10T18:41:33.188Z,16.31
2018-07-10T18:44:02.026Z,16.26
2018-07-10T18:46:30.288Z,16.19
2018-07-10T18:48:59.050Z,16.12
2018-07-10T18:51:28.534Z,16.11
2018-07-10T18:53:56.853Z,16.13
2018-07-10T18:56:26.824Z,15.01
2018-07-10T18:59:02.803Z,16.03
2018-07-10T19:01:40.712Z,15.95
2018-07-10T19:04:08.932Z,15.90
2018-07-10T19:06:37.052Z,15.82
2018-07-10T19:09:05.733Z,15.77
2018-07-10T19:11:33.934Z,15.71
2018-07-10T19:14:02.419Z,15.60
2018-07-10T19:16:35.087Z,15.59
2018-07-10T19:19:04.940Z,15.58
2018-07-10T19:21:38.973Z,15.54
2018-07-10T19:24:14.722Z,15.55
2018-07-10T19:26:43.496Z,15.53
2018-07-10T19:29:15.099Z,15.50
2018-07-10T19:31:43.668Z,15.44
2018-07-10T19:34:11.793Z,15.38
2018-07-10T19:36:39.965Z,15.33
2018-07-10T19:39:08.645Z,15.29
2018-07-10T19:41:36.996Z,15.24
2018-07-10T19:44:05.064Z,15.22
2018-07-10T19:46:34.849Z,15.20
2018-07-10T19:49:04.632Z,15.17
2018-07-10T19:51:32.810Z,15.16
2018-07-10T19:54:05.200Z,15.17
2018-07-10T19:56:33.320Z,15.15
2018-07-10T19:59:04.712Z,15.12
2018-07-10T20:01:36.954Z,15.13
2018-07-10T20:04:07.633Z,15.12
2018-07-10T20:07:44.177Z,15.17
2018-07-10T20:10:30.140Z,15.17
2018-07-10T20:13:04.697Z,15.20
2018-07-10T20:15:50.760Z,15.11
2018-07-10T20:18:27.975Z,15.10
2018-07-10T20:21:06.947Z,15.05
2018-07-10T20:24:55.301Z,15.01
2018-07-10T20:27:30.339Z,14.95
2018-07-10T20:30:09.918Z,14.91
2018-07-10T20:32:44.115Z,14.95
2018-07-10T20:35:32.493Z,14.95
2018-07-10T20:38:01.890Z,14.91
2018-07-10T20:40:36.360Z,14.90
2018-07-10T20:43:10.664Z,14.92
2018-07-10T20:45:49.299Z,14.96
2018-07-10T20:48:22.964Z,15.00
2018-07-10T20:51:01.806Z,15.02
2018-07-10T20:53:43.246Z,14.93
2018-07-10T20:56:20.280Z,14.96
2018-07-10T20:58:52.924Z,14.96
2018-07-10T21:01:25.403Z,14.93
2018-07-10T21:03:56.702Z,14.86
2018-07-10T21:06:34.110Z,14.89
2018-07-10T21:09:09.164Z,14.85
2018-07-10T21:11:41.996Z,14.80
2018-07-10T21:14:16.997Z,14.77
2018-07-10T21:17:09.816Z,14.69
2018-07-10T21:19:46.347Z,14.65
2018-07-10T21:22:27.206Z,14.67
2018-07-10T21:25:05.079Z,14.66
2018-07-10T21:27:39.583Z,14.67
2018-07-10T21:30:15.068Z,14.63
2018-07-10T21:32:56.117Z,14.62
2018-07-10T21:35:27.644Z,14.60
2018-07-10T21:40:07.944Z,14.60
2018-07-10T21:43:00.817Z,14.58
2018-07-10T21:46:01.731Z,14.55
2018-07-10T21:48:43.629Z,14.53
2018-07-10T21:51:11.778Z,14.53
2018-07-10T21:53:39.880Z,14.51
2018-07-10T21:56:07.996Z,14.49
2018-07-10T21:58:36.046Z,14.46
2018-07-10T22:01:43.300Z,14.45
2018-07-10T22:04:14.873Z,14.42
2018-07-10T22:06:43.001Z,14.41
2018-07-10T22:09:11.931Z,14.36
2018-07-10T22:11:40.123Z,14.39
2018-07-10T22:14:09.938Z,14.37
2018-07-10T22:16:38.301Z,14.31
2018-07-10T22:19:06.366Z,14.31
2018-07-10T22:21:34.452Z,14.29
2018-07-10T22:24:02.599Z,14.28
2018-07-10T22:26:30.935Z,14.26
2018-07-10T22:28:59.872Z,14.26
2018-07-10T22:31:33.239Z,14.20
2018-07-10T22:34:01.697Z,14.13
2018-07-10T22:36:29.999Z,14.08
2018-07-10T22:38:58.823Z,14.05
2018-07-10T22:41:27.209Z,14.03
2018-07-10T22:43:55.405Z,14.05
2018-07-10T22:46:26.131Z,14.04
2018-07-10T22:49:09.637Z,14.06
2018-07-10T22:51:37.708Z,14.11
2018-07-10T22:54:06.195Z,14.07
2018-07-10T22:56:35.068Z,14.15
2018-07-10T22:59:03.441Z,14.17
2018-07-10T23:01:32.249Z,14.19
2018-07-10T23:04:00.378Z,14.11
2018-07-10T23:06:28.573Z,14.15
2018-07-10T23:08:56.895Z,14.16
2018-07-10T23:11:25.055Z,14.16
2018-07-10T23:13:53.860Z,14.17
2018-07-10T23:16:23.560Z,14.16
2018-07-10T23:18:52.331Z,14.16
2018-07-10T23:21:20.623Z,14.15
2018-07-10T23:23:49.338Z,14.16
2018-07-10T23:26:18.917Z,14.12
2018-07-10T23:28:51.492Z,14.11
2018-07-10T23:31:20.148Z,14.12
2018-07-10T23:34:23.354Z,14.17
2018-07-10T23:36:53.632Z,14.18
2018-07-10T23:39:28.114Z,14.22
2018-07-10T23:42:01.692Z,14.26
2018-07-10T23:44:31.653Z,13.99
2018-07-10T23:47:10.039Z,14.29
2018-07-10T23:49:38.146Z,14.29
2018-07-10T23:53:20.423Z,14.27
2018-07-10T23:55:48.611Z,14.23
2018-07-10T23:58:16.782Z,14.25
